Metar z połowy godziny Komunikat METAR ze strony awiacja.imgw.pl Metar G30 EPWA METAR EPWA 230730Z 09009KT 9999 BKN032 M04/M07 Q1009 NOSIG=